Terminal Aerodrome Forecast
Issued by NWS Wichita, KS

Home | Current Version | Previous Version | Graphics & Text | Print | Product List | Glossary On
Versions: 1 2 3 4 5 6 7 8 9 10 11 12 13 14 15 16 17
000
FTUS43 KICT 292328
TAFICT
TAF
KICT 292328Z 3000/3024 03007KT P6SM SCT025
      TEMPO 3000/3002 BKN025
     FM300900 03005KT 3SM BR SCT015
     FM301600 07006KT P6SM BKN025
     FM302100 11007KT P6SM SCT035=

USA.gov is the U.S. government's official web portal to all federal, state and local government web resources and services.